EVRA/RIX METAR and TAF weather

Enter ICAO airport designator
Station Type Date Time Source
EVRA METAR 2020/01/22 15:20 UTC NOAA

EVRA 221520Z 33016G26KT 9999 SCT024CB BKN029 OVC035 04/M00 Q1013 R36/290195 NOSIG


Station Type Date Time Source
EVRA Decoded METAR 2020/01/22 15:20 UTC NOAA

Riga International Airport, Latvia (EVRA) 56-55N 023-58E
Jan 22, 2020 - 10:20 AM EST / 2020.01.22 1520 UTC
Wind: from the NNW (330 degrees) at 18 MPH (16 KT) gusting to 30 MPH (26 KT):0
Visibility: greater than 7 mile(s):0
Sky conditions: overcast
Weather: Cumulonimbus clouds observed
Temperature: 39 F (4 C)
Dew Point: 32 F (0 C)
Relative Humidity: 75%
Pressure (altimeter): 29.91 in. Hg (1013 hPa)
ob: EVRA 221520Z 33016G26KT 9999 SCT024CB BKN029 OVC035 04/M00 Q1013 R36/290195 NOSIG
cycle: 15

Station Type Date Time Source
EVRA TAF 2020/01/22 15:03 UTC NOAA

TAF TAF EVRA 221400Z 2215/2315 32013KT 9999 BKN025
TEMPO 2215/2221 33020G30KT 4000 SHRAGR
TEMPO 2221/2224 33016G28KT
TEMPO 2300/2306 3000 SHSN BKN015CB BKN025 PROB40
TEMPO 2300/2306 0700 +SHSN VV002
BECMG 2309/2311 24007KT

Example: see airport list